sensor_id;sensor_type;location;lat;lon;timestamp;P1;durP1;ratioP1;P2;durP2;ratioP2
16512;SDS011;8369;48.030;11.598;2022-11-15T00:02:01;3.67;;;2.47;;
16512;SDS011;8369;48.030;11.598;2022-11-15T00:04:30;2.80;;;2.10;;
16512;SDS011;8369;48.030;11.598;2022-11-15T00:06:55;2.97;;;2.10;;
16512;SDS011;8369;48.030;11.598;2022-11-15T00:09:21;2.97;;;2.10;;
16512;SDS011;8369;48.030;11.598;2022-11-15T00:11:47;2.60;;;2.10;;
16512;SDS011;8369;48.030;11.598;2022-11-15T00:14:13;3.30;;;2.50;;
16512;SDS011;8369;48.030;11.598;2022-11-15T00:16:38;2.77;;;2.13;;
16512;SDS011;8369;48.030;11.598;2022-11-15T00:19:04;3.17;;;2.20;;
16512;SDS011;8369;48.030;11.598;2022-11-15T00:21:30;3.13;;;2.30;;
16512;SDS011;8369;48.030;11.598;2022-11-15T00:23:56;3.83;;;2.50;;
16512;SDS011;8369;48.030;11.598;2022-11-15T00:26:22;2.60;;;2.17;;
16512;SDS011;8369;48.030;11.598;2022-11-15T00:28:48;2.70;;;1.87;;
16512;SDS011;8369;48.030;11.598;2022-11-15T00:31:16;2.60;;;2.13;;
16512;SDS011;8369;48.030;11.598;2022-11-15T00:33:43;3.90;;;2.67;;
16512;SDS011;8369;48.030;11.598;2022-11-15T00:36:09;3.57;;;2.73;;
16512;SDS011;8369;48.030;11.598;2022-11-15T00:38:36;5.03;;;2.60;;
16512;SDS011;8369;48.030;11.598;2022-11-15T00:41:04;4.73;;;2.60;;
16512;SDS011;8369;48.030;11.598;2022-11-15T00:43:31;3.43;;;2.10;;
16512;SDS011;8369;48.030;11.598;2022-11-15T00:45:58;2.70;;;2.40;;
16512;SDS011;8369;48.030;11.598;2022-11-15T00:48:23;3.43;;;2.53;;
16512;SDS011;8369;48.030;11.598;2022-11-15T00:50:49;3.60;;;2.70;;
16512;SDS011;8369;48.030;11.598;2022-11-15T00:53:16;3.67;;;2.40;;
16512;SDS011;8369;48.030;11.598;2022-11-15T00:55:42;5.27;;;2.57;;
16512;SDS011;8369;48.030;11.598;2022-11-15T00:58:08;3.57;;;2.60;;
16512;SDS011;8369;48.030;11.598;2022-11-15T01:00:34;2.97;;;2.33;;
16512;SDS011;8369;48.030;11.598;2022-11-15T01:03:00;2.63;;;1.83;;
16512;SDS011;8369;48.030;11.598;2022-11-15T01:05:27;2.87;;;2.17;;
16512;SDS011;8369;48.030;11.598;2022-11-15T01:07:53;3.70;;;1.80;;
16512;SDS011;8369;48.030;11.598;2022-11-15T01:10:21;3.37;;;2.03;;
16512;SDS011;8369;48.030;11.598;2022-11-15T01:12:47;3.47;;;1.97;;
16512;SDS011;8369;48.030;11.598;2022-11-15T01:15:13;2.77;;;2.03;;
16512;SDS011;8369;48.030;11.598;2022-11-15T01:17:39;2.10;;;1.90;;
16512;SDS011;8369;48.030;11.598;2022-11-15T01:20:05;2.00;;;1.67;;
16512;SDS011;8369;48.030;11.598;2022-11-15T01:22:31;2.80;;;2.20;;
16512;SDS011;8369;48.030;11.598;2022-11-15T01:24:57;2.40;;;2.03;;
16512;SDS011;8369;48.030;11.598;2022-11-15T01:27:23;3.00;;;2.43;;
16512;SDS011;8369;48.030;11.598;2022-11-15T01:29:49;2.23;;;1.97;;
16512;SDS011;8369;48.030;11.598;2022-11-15T01:32:15;2.67;;;2.20;;
16512;SDS011;8369;48.030;11.598;2022-11-15T01:34:41;2.33;;;2.00;;
16512;SDS011;8369;48.030;11.598;2022-11-15T01:37:07;2.47;;;2.00;;
16512;SDS011;8369;48.030;11.598;2022-11-15T01:39:33;4.43;;;2.90;;
16512;SDS011;8369;48.030;11.598;2022-11-15T01:41:58;6.43;;;4.17;;
16512;SDS011;8369;48.030;11.598;2022-11-15T01:47:15;4.97;;;3.70;;
16512;SDS011;8369;48.030;11.598;2022-11-15T01:49:50;8.30;;;5.50;;
16512;SDS011;8369;48.030;11.598;2022-11-15T01:52:25;8.07;;;5.50;;
16512;SDS011;8369;48.030;11.598;2022-11-15T01:55:27;5.30;;;3.70;;
16512;SDS011;8369;48.030;11.598;2022-11-15T01:57:48;2.90;;;2.20;;
16512;SDS011;8369;48.030;11.598;2022-11-15T02:00:17;2.70;;;2.10;;
16512;SDS011;8369;48.030;11.598;2022-11-15T02:02:43;2.00;;;1.70;;
16512;SDS011;8369;48.030;11.598;2022-11-15T02:05:09;3.43;;;2.00;;
16512;SDS011;8369;48.030;11.598;2022-11-15T02:07:36;2.37;;;2.17;;
16512;SDS011;8369;48.030;11.598;2022-11-15T02:10:13;4.47;;;2.50;;
16512;SDS011;8369;48.030;11.598;2022-11-15T02:12:43;3.47;;;2.60;;
16512;SDS011;8369;48.030;11.598;2022-11-15T02:15:09;3.93;;;3.00;;
16512;SDS011;8369;48.030;11.598;2022-11-15T02:21:10;4.70;;;3.20;;
16512;SDS011;8369;48.030;11.598;2022-11-15T02:26:50;3.37;;;2.80;;
16512;SDS011;8369;48.030;11.598;2022-11-15T02:32:12;5.93;;;3.33;;
16512;SDS011;8369;48.030;11.598;2022-11-15T02:40:12;2.90;;;2.20;;
16512;SDS011;8369;48.030;11.598;2022-11-15T02:43:04;2.33;;;1.80;;
16512;SDS011;8369;48.030;11.598;2022-11-15T02:46:06;2.80;;;2.40;;
16512;SDS011;8369;48.030;11.598;2022-11-15T02:48:38;5.73;;;3.50;;
16512;SDS011;8369;48.030;11.598;2022-11-15T02:51:06;5.17;;;3.20;;
16512;SDS011;8369;48.030;11.598;2022-11-15T02:53:32;3.27;;;2.90;;
16512;SDS011;8369;48.030;11.598;2022-11-15T02:55:58;3.93;;;2.80;;
16512;SDS011;8369;48.030;11.598;2022-11-15T03:04:28;5.50;;;3.13;;
16512;SDS011;8369;48.030;11.598;2022-11-15T03:07:10;5.37;;;2.97;;
16512;SDS011;8369;48.030;11.598;2022-11-15T03:09:54;6.83;;;3.80;;
16512;SDS011;8369;48.030;11.598;2022-11-15T03:12:36;6.43;;;3.10;;
16512;SDS011;8369;48.030;11.598;2022-11-15T03:15:29;3.60;;;2.50;;
16512;SDS011;8369;48.030;11.598;2022-11-15T03:18:21;2.90;;;2.17;;
16512;SDS011;8369;48.030;11.598;2022-11-15T03:20:55;2.87;;;2.07;;
16512;SDS011;8369;48.030;11.598;2022-11-15T03:23:23;3.60;;;2.73;;
16512;SDS011;8369;48.030;11.598;2022-11-15T03:25:50;3.03;;;2.37;;
16512;SDS011;8369;48.030;11.598;2022-11-15T03:28:31;2.07;;;1.87;;
16512;SDS011;8369;48.030;11.598;2022-11-15T03:31:03;2.47;;;2.00;;
16512;SDS011;8369;48.030;11.598;2022-11-15T03:33:50;7.57;;;2.13;;
16512;SDS011;8369;48.030;11.598;2022-11-15T03:36:18;2.93;;;2.10;;
16512;SDS011;8369;48.030;11.598;2022-11-15T03:38:46;3.70;;;2.30;;
16512;SDS011;8369;48.030;11.598;2022-11-15T03:41:18;2.07;;;1.87;;
16512;SDS011;8369;48.030;11.598;2022-11-15T03:43:57;1.83;;;1.70;;
16512;SDS011;8369;48.030;11.598;2022-11-15T03:46:33;2.23;;;1.77;;
16512;SDS011;8369;48.030;11.598;2022-11-15T03:49:27;4.00;;;2.10;;
16512;SDS011;8369;48.030;11.598;2022-11-15T03:51:57;2.63;;;2.07;;
16512;SDS011;8369;48.030;11.598;2022-11-15T03:54:24;1.73;;;1.60;;
16512;SDS011;8369;48.030;11.598;2022-11-15T03:56:50;1.93;;;1.73;;
16512;SDS011;8369;48.030;11.598;2022-11-15T03:59:16;2.60;;;1.70;;
16512;SDS011;8369;48.030;11.598;2022-11-15T04:01:41;2.57;;;1.90;;
16512;SDS011;8369;48.030;11.598;2022-11-15T04:04:07;13.63;;;6.93;;
16512;SDS011;8369;48.030;11.598;2022-11-15T04:06:33;9.57;;;5.93;;
16512;SDS011;8369;48.030;11.598;2022-11-15T04:08:59;10.03;;;5.47;;
16512;SDS011;8369;48.030;11.598;2022-11-15T04:11:25;6.87;;;4.73;;
16512;SDS011;8369;48.030;11.598;2022-11-15T04:13:50;6.70;;;3.63;;
16512;SDS011;8369;48.030;11.598;2022-11-15T04:16:16;4.50;;;3.37;;
16512;SDS011;8369;48.030;11.598;2022-11-15T04:18:42;3.70;;;2.43;;
16512;SDS011;8369;48.030;11.598;2022-11-15T04:21:08;3.03;;;2.50;;
16512;SDS011;8369;48.030;11.598;2022-11-15T04:23:53;2.20;;;2.00;;
16512;SDS011;8369;48.030;11.598;2022-11-15T04:26:31;1.97;;;1.77;;
16512;SDS011;8369;48.030;11.598;2022-11-15T04:28:57;3.83;;;1.97;;
16512;SDS011;8369;48.030;11.598;2022-11-15T04:31:41;2.30;;;1.90;;
16512;SDS011;8369;48.030;11.598;2022-11-15T04:34:07;1.83;;;1.70;;
16512;SDS011;8369;48.030;11.598;2022-11-15T04:36:33;1.90;;;1.60;;
16512;SDS011;8369;48.030;11.598;2022-11-15T04:39:17;3.80;;;1.80;;
16512;SDS011;8369;48.030;11.598;2022-11-15T04:41:43;2.27;;;1.50;;
16512;SDS011;8369;48.030;11.598;2022-11-15T04:44:09;1.67;;;1.50;;
16512;SDS011;8369;48.030;11.598;2022-11-15T04:46:35;2.07;;;1.83;;
16512;SDS011;8369;48.030;11.598;2022-11-15T04:49:00;2.90;;;1.50;;
16512;SDS011;8369;48.030;11.598;2022-11-15T04:51:26;1.70;;;1.50;;
16512;SDS011;8369;48.030;11.598;2022-11-15T04:53:52;2.27;;;1.40;;
16512;SDS011;8369;48.030;11.598;2022-11-15T04:56:18;2.00;;;1.80;;
16512;SDS011;8369;48.030;11.598;2022-11-15T04:58:44;2.40;;;1.83;;
16512;SDS011;8369;48.030;11.598;2022-11-15T05:01:11;2.27;;;1.80;;
16512;SDS011;8369;48.030;11.598;2022-11-15T05:03:40;2.77;;;1.83;;
16512;SDS011;8369;48.030;11.598;2022-11-15T05:06:24;2.77;;;1.67;;
16512;SDS011;8369;48.030;11.598;2022-11-15T05:08:51;2.00;;;1.70;;
16512;SDS011;8369;48.030;11.598;2022-11-15T05:11:17;2.30;;;2.00;;
16512;SDS011;8369;48.030;11.598;2022-11-15T05:13:43;2.20;;;1.87;;
16512;SDS011;8369;48.030;11.598;2022-11-15T05:16:08;2.00;;;1.50;;
16512;SDS011;8369;48.030;11.598;2022-11-15T05:18:34;2.23;;;1.70;;
16512;SDS011;8369;48.030;11.598;2022-11-15T05:21:04;2.70;;;2.07;;
16512;SDS011;8369;48.030;11.598;2022-11-15T05:23:31;2.37;;;1.80;;
16512;SDS011;8369;48.030;11.598;2022-11-15T05:26:01;2.10;;;1.90;;
16512;SDS011;8369;48.030;11.598;2022-11-15T05:28:29;2.50;;;2.00;;
16512;SDS011;8369;48.030;11.598;2022-11-15T05:31:06;6.20;;;2.23;;
16512;SDS011;8369;48.030;11.598;2022-11-15T05:33:35;3.27;;;1.80;;
16512;SDS011;8369;48.030;11.598;2022-11-15T05:38:32;3.70;;;1.83;;
16512;SDS011;8369;48.030;11.598;2022-11-15T05:40:59;1.60;;;1.50;;
16512;SDS011;8369;48.030;11.598;2022-11-15T05:43:26;4.97;;;1.87;;
16512;SDS011;8369;48.030;11.598;2022-11-15T05:45:54;2.50;;;1.77;;
16512;SDS011;8369;48.030;11.598;2022-11-15T05:48:21;5.70;;;2.97;;
16512;SDS011;8369;48.030;11.598;2022-11-15T05:50:47;5.40;;;2.53;;
16512;SDS011;8369;48.030;11.598;2022-11-15T05:53:14;3.03;;;2.20;;
16512;SDS011;8369;48.030;11.598;2022-11-15T05:55:42;2.53;;;1.90;;
16512;SDS011;8369;48.030;11.598;2022-11-15T05:58:08;3.50;;;2.17;;
16512;SDS011;8369;48.030;11.598;2022-11-15T06:00:34;3.47;;;2.20;;
16512;SDS011;8369;48.030;11.598;2022-11-15T06:03:00;3.37;;;2.67;;
16512;SDS011;8369;48.030;11.598;2022-11-15T06:05:26;4.00;;;2.60;;
16512;SDS011;8369;48.030;11.598;2022-11-15T06:07:52;4.90;;;2.47;;
16512;SDS011;8369;48.030;11.598;2022-11-15T06:10:17;3.63;;;2.47;;
16512;SDS011;8369;48.030;11.598;2022-11-15T06:12:43;3.17;;;2.50;;
16512;SDS011;8369;48.030;11.598;2022-11-15T06:15:09;3.67;;;2.67;;
16512;SDS011;8369;48.030;11.598;2022-11-15T06:17:35;5.23;;;2.90;;
16512;SDS011;8369;48.030;11.598;2022-11-15T06:20:01;5.53;;;2.40;;
16512;SDS011;8369;48.030;11.598;2022-11-15T06:22:26;13.17;;;6.33;;
16512;SDS011;8369;48.030;11.598;2022-11-15T06:24:52;15.27;;;7.60;;
16512;SDS011;8369;48.030;11.598;2022-11-15T06:27:18;11.00;;;6.30;;
16512;SDS011;8369;48.030;11.598;2022-11-15T06:29:44;19.57;;;10.87;;
16512;SDS011;8369;48.030;11.598;2022-11-15T06:32:10;16.37;;;6.67;;
16512;SDS011;8369;48.030;11.598;2022-11-15T06:34:35;13.67;;;5.23;;
16512;SDS011;8369;48.030;11.598;2022-11-15T06:37:02;5.90;;;3.73;;
16512;SDS011;8369;48.030;11.598;2022-11-15T06:39:28;7.33;;;3.33;;
16512;SDS011;8369;48.030;11.598;2022-11-15T06:41:53;10.20;;;4.63;;
16512;SDS011;8369;48.030;11.598;2022-11-15T06:44:19;14.50;;;7.80;;
16512;SDS011;8369;48.030;11.598;2022-11-15T06:46:45;27.10;;;11.37;;
16512;SDS011;8369;48.030;11.598;2022-11-15T06:49:11;22.17;;;11.43;;
16512;SDS011;8369;48.030;11.598;2022-11-15T06:51:36;22.60;;;12.43;;
16512;SDS011;8369;48.030;11.598;2022-11-15T06:54:02;24.73;;;13.47;;
16512;SDS011;8369;48.030;11.598;2022-11-15T06:56:28;13.50;;;7.73;;
16512;SDS011;8369;48.030;11.598;2022-11-15T06:58:54;14.93;;;5.40;;
16512;SDS011;8369;48.030;11.598;2022-11-15T07:01:20;6.37;;;3.90;;
16512;SDS011;8369;48.030;11.598;2022-11-15T07:03:46;9.20;;;4.17;;
16512;SDS011;8369;48.030;11.598;2022-11-15T07:06:12;7.73;;;4.17;;
16512;SDS011;8369;48.030;11.598;2022-11-15T07:08:38;9.03;;;4.33;;
16512;SDS011;8369;48.030;11.598;2022-11-15T07:11:04;9.43;;;4.20;;
16512;SDS011;8369;48.030;11.598;2022-11-15T07:13:32;9.60;;;4.23;;
16512;SDS011;8369;48.030;11.598;2022-11-15T07:16:05;7.43;;;3.70;;
16512;SDS011;8369;48.030;11.598;2022-11-15T07:18:36;6.93;;;3.33;;
16512;SDS011;8369;48.030;11.598;2022-11-15T07:21:04;9.13;;;4.30;;
16512;SDS011;8369;48.030;11.598;2022-11-15T07:23:32;9.50;;;4.07;;
16512;SDS011;8369;48.030;11.598;2022-11-15T07:25:58;11.13;;;5.40;;
16512;SDS011;8369;48.030;11.598;2022-11-15T07:28:25;12.67;;;5.20;;
16512;SDS011;8369;48.030;11.598;2022-11-15T07:30:51;10.73;;;5.23;;
16512;SDS011;8369;48.030;11.598;2022-11-15T07:33:17;10.20;;;6.17;;
16512;SDS011;8369;48.030;11.598;2022-11-15T07:35:43;12.50;;;6.30;;
16512;SDS011;8369;48.030;11.598;2022-11-15T07:38:11;12.43;;;6.20;;
16512;SDS011;8369;48.030;11.598;2022-11-15T07:40:37;8.77;;;5.10;;
16512;SDS011;8369;48.030;11.598;2022-11-15T07:43:06;8.93;;;4.90;;
16512;SDS011;8369;48.030;11.598;2022-11-15T07:45:33;8.83;;;5.30;;
16512;SDS011;8369;48.030;11.598;2022-11-15T07:48:04;8.07;;;4.57;;
16512;SDS011;8369;48.030;11.598;2022-11-15T07:50:31;13.63;;;4.80;;
16512;SDS011;8369;48.030;11.598;2022-11-15T07:52:57;7.83;;;4.50;;
16512;SDS011;8369;48.030;11.598;2022-11-15T07:55:24;13.47;;;6.17;;
16512;SDS011;8369;48.030;11.598;2022-11-15T07:57:52;17.17;;;6.90;;
16512;SDS011;8369;48.030;11.598;2022-11-15T08:00:18;10.97;;;6.00;;
16512;SDS011;8369;48.030;11.598;2022-11-15T08:02:44;15.00;;;6.83;;
16512;SDS011;8369;48.030;11.598;2022-11-15T08:05:11;16.77;;;7.80;;
16512;SDS011;8369;48.030;11.598;2022-11-15T08:07:36;19.87;;;9.27;;
16512;SDS011;8369;48.030;11.598;2022-11-15T08:10:03;20.27;;;8.80;;
16512;SDS011;8369;48.030;11.598;2022-11-15T08:12:31;15.03;;;6.43;;
16512;SDS011;8369;48.030;11.598;2022-11-15T08:14:57;13.30;;;6.00;;
16512;SDS011;8369;48.030;11.598;2022-11-15T08:17:23;12.60;;;6.47;;
16512;SDS011;8369;48.030;11.598;2022-11-15T08:19:50;9.23;;;5.43;;
16512;SDS011;8369;48.030;11.598;2022-11-15T08:22:16;13.07;;;5.60;;
16512;SDS011;8369;48.030;11.598;2022-11-15T08:24:43;8.80;;;5.40;;
16512;SDS011;8369;48.030;11.598;2022-11-15T08:27:09;9.57;;;4.77;;
16512;SDS011;8369;48.030;11.598;2022-11-15T08:29:40;16.47;;;5.27;;
16512;SDS011;8369;48.030;11.598;2022-11-15T08:32:07;4.93;;;3.50;;
16512;SDS011;8369;48.030;11.598;2022-11-15T08:34:34;5.53;;;2.60;;
16512;SDS011;8369;48.030;11.598;2022-11-15T08:37:00;6.83;;;2.67;;
16512;SDS011;8369;48.030;11.598;2022-11-15T08:39:25;5.67;;;2.90;;
16512;SDS011;8369;48.030;11.598;2022-11-15T08:41:51;4.57;;;2.87;;
16512;SDS011;8369;48.030;11.598;2022-11-15T08:44:17;6.83;;;2.63;;
16512;SDS011;8369;48.030;11.598;2022-11-15T08:46:45;6.60;;;2.43;;
16512;SDS011;8369;48.030;11.598;2022-11-15T08:49:11;2.73;;;2.13;;
16512;SDS011;8369;48.030;11.598;2022-11-15T08:51:37;3.43;;;2.77;;
16512;SDS011;8369;48.030;11.598;2022-11-15T08:54:03;4.83;;;2.80;;
16512;SDS011;8369;48.030;11.598;2022-11-15T08:56:29;2.93;;;2.37;;
16512;SDS011;8369;48.030;11.598;2022-11-15T08:58:55;4.03;;;2.80;;
16512;SDS011;8369;48.030;11.598;2022-11-15T09:01:21;5.10;;;2.57;;
16512;SDS011;8369;48.030;11.598;2022-11-15T09:03:47;2.67;;;2.30;;
16512;SDS011;8369;48.030;11.598;2022-11-15T09:06:13;4.43;;;2.37;;
16512;SDS011;8369;48.030;11.598;2022-11-15T09:08:40;6.20;;;2.80;;
16512;SDS011;8369;48.030;11.598;2022-11-15T09:11:06;3.13;;;2.10;;
16512;SDS011;8369;48.030;11.598;2022-11-15T09:13:34;5.73;;;2.40;;
16512;SDS011;8369;48.030;11.598;2022-11-15T09:16:01;2.83;;;2.00;;
16512;SDS011;8369;48.030;11.598;2022-11-15T09:18:28;5.50;;;2.50;;
16512;SDS011;8369;48.030;11.598;2022-11-15T09:20:55;3.70;;;2.50;;
16512;SDS011;8369;48.030;11.598;2022-11-15T09:23:25;4.67;;;2.70;;
16512;SDS011;8369;48.030;11.598;2022-11-15T09:25:52;3.60;;;2.63;;
16512;SDS011;8369;48.030;11.598;2022-11-15T09:28:22;6.77;;;2.43;;
16512;SDS011;8369;48.030;11.598;2022-11-15T09:30:48;5.87;;;2.30;;
16512;SDS011;8369;48.030;11.598;2022-11-15T09:33:14;2.73;;;2.20;;
16512;SDS011;8369;48.030;11.598;2022-11-15T09:35:39;4.10;;;2.13;;
16512;SDS011;8369;48.030;11.598;2022-11-15T09:38:06;6.30;;;2.20;;
16512;SDS011;8369;48.030;11.598;2022-11-15T09:40:32;4.50;;;2.70;;
16512;SDS011;8369;48.030;11.598;2022-11-15T09:51:04;3.70;;;2.53;;
16512;SDS011;8369;48.030;11.598;2022-11-15T09:56:20;2.00;;;1.80;;
16512;SDS011;8369;48.030;11.598;2022-11-15T10:01:28;3.13;;;1.90;;
16512;SDS011;8369;48.030;11.598;2022-11-15T10:04:19;5.33;;;2.20;;
16512;SDS011;8369;48.030;11.598;2022-11-15T10:06:49;3.80;;;2.30;;
16512;SDS011;8369;48.030;11.598;2022-11-15T10:09:36;3.33;;;2.30;;
16512;SDS011;8369;48.030;11.598;2022-11-15T10:12:08;3.57;;;2.40;;
16512;SDS011;8369;48.030;11.598;2022-11-15T10:14:38;5.07;;;2.63;;
16512;SDS011;8369;48.030;11.598;2022-11-15T10:17:26;4.23;;;2.60;;
16512;SDS011;8369;48.030;11.598;2022-11-15T10:27:45;2.73;;;2.20;;
16512;SDS011;8369;48.030;11.598;2022-11-15T10:30:45;5.70;;;2.00;;
16512;SDS011;8369;48.030;11.598;2022-11-15T10:33:27;1.93;;;1.73;;
16512;SDS011;8369;48.030;11.598;2022-11-15T10:43:42;3.30;;;2.10;;
16512;SDS011;8369;48.030;11.598;2022-11-15T10:46:21;4.30;;;2.20;;
16512;SDS011;8369;48.030;11.598;2022-11-15T10:48:48;3.60;;;2.00;;
16512;SDS011;8369;48.030;11.598;2022-11-15T10:51:22;2.77;;;2.17;;
16512;SDS011;8369;48.030;11.598;2022-11-15T10:53:57;2.67;;;2.03;;
16512;SDS011;8369;48.030;11.598;2022-11-15T10:56:26;3.23;;;2.17;;
16512;SDS011;8369;48.030;11.598;2022-11-15T10:58:53;4.60;;;2.30;;
16512;SDS011;8369;48.030;11.598;2022-11-15T11:01:25;3.87;;;2.23;;
16512;SDS011;8369;48.030;11.598;2022-11-15T11:04:06;3.80;;;3.00;;
16512;SDS011;8369;48.030;11.598;2022-11-15T11:06:53;4.00;;;2.93;;
16512;SDS011;8369;48.030;11.598;2022-11-15T11:09:34;3.87;;;2.37;;
16512;SDS011;8369;48.030;11.598;2022-11-15T11:12:02;2.10;;;1.90;;
16512;SDS011;8369;48.030;11.598;2022-11-15T11:14:31;1.93;;;1.83;;
16512;SDS011;8369;48.030;11.598;2022-11-15T11:29:04;3.13;;;2.60;;
16512;SDS011;8369;48.030;11.598;2022-11-15T11:37:03;2.23;;;2.00;;
16512;SDS011;8369;48.030;11.598;2022-11-15T11:39:42;5.07;;;2.13;;
16512;SDS011;8369;48.030;11.598;2022-11-15T11:42:26;3.70;;;2.60;;
16512;SDS011;8369;48.030;11.598;2022-11-15T11:45:15;3.73;;;2.30;;
16512;SDS011;8369;48.030;11.598;2022-11-15T11:48:12;2.90;;;2.43;;
16512;SDS011;8369;48.030;11.598;2022-11-15T11:50:40;5.67;;;2.47;;
16512;SDS011;8369;48.030;11.598;2022-11-15T11:56:06;2.63;;;2.00;;
16512;SDS011;8369;48.030;11.598;2022-11-15T11:58:55;4.43;;;2.40;;
16512;SDS011;8369;48.030;11.598;2022-11-15T12:01:43;2.53;;;2.17;;
16512;SDS011;8369;48.030;11.598;2022-11-15T12:04:19;7.13;;;2.27;;
16512;SDS011;8369;48.030;11.598;2022-11-15T12:14:51;3.90;;;2.40;;
16512;SDS011;8369;48.030;11.598;2022-11-15T12:17:24;3.80;;;2.43;;
16512;SDS011;8369;48.030;11.598;2022-11-15T12:19:57;3.43;;;2.47;;
16512;SDS011;8369;48.030;11.598;2022-11-15T12:22:43;3.80;;;2.60;;
16512;SDS011;8369;48.030;11.598;2022-11-15T12:25:44;3.80;;;2.60;;
16512;SDS011;8369;48.030;11.598;2022-11-15T12:31:12;3.30;;;2.70;;
16512;SDS011;8369;48.030;11.598;2022-11-15T12:33:44;2.90;;;2.50;;
16512;SDS011;8369;48.030;11.598;2022-11-15T12:39:00;3.70;;;2.73;;
16512;SDS011;8369;48.030;11.598;2022-11-15T12:41:32;2.73;;;2.20;;
16512;SDS011;8369;48.030;11.598;2022-11-15T12:43:59;4.40;;;2.50;;
16512;SDS011;8369;48.030;11.598;2022-11-15T13:05:19;2.37;;;1.97;;
16512;SDS011;8369;48.030;11.598;2022-11-15T13:17:46;2.50;;;1.90;;
16512;SDS011;8369;48.030;11.598;2022-11-15T13:23:01;2.47;;;1.77;;
16512;SDS011;8369;48.030;11.598;2022-11-15T13:30:57;2.27;;;2.07;;
16512;SDS011;8369;48.030;11.598;2022-11-15T13:33:27;3.27;;;2.30;;
16512;SDS011;8369;48.030;11.598;2022-11-15T13:35:58;2.17;;;1.83;;
16512;SDS011;8369;48.030;11.598;2022-11-15T13:38:27;2.73;;;2.03;;
16512;SDS011;8369;48.030;11.598;2022-11-15T13:40:55;1.87;;;1.60;;
16512;SDS011;8369;48.030;11.598;2022-11-15T13:46:10;4.87;;;2.27;;
16512;SDS011;8369;48.030;11.598;2022-11-15T13:48:54;4.03;;;2.80;;
16512;SDS011;8369;48.030;11.598;2022-11-15T13:51:52;4.73;;;3.10;;
16512;SDS011;8369;48.030;11.598;2022-11-15T13:56:59;4.40;;;2.63;;
16512;SDS011;8369;48.030;11.598;2022-11-15T13:59:29;3.53;;;2.47;;
16512;SDS011;8369;48.030;11.598;2022-11-15T14:02:03;3.63;;;2.50;;
16512;SDS011;8369;48.030;11.598;2022-11-15T14:04:39;6.67;;;2.17;;
16512;SDS011;8369;48.030;11.598;2022-11-15T14:07:16;2.70;;;2.07;;
16512;SDS011;8369;48.030;11.598;2022-11-15T14:09:44;2.57;;;2.10;;
16512;SDS011;8369;48.030;11.598;2022-11-15T14:12:25;12.90;;;2.10;;
16512;SDS011;8369;48.030;11.598;2022-11-15T14:15:01;2.97;;;2.17;;
16512;SDS011;8369;48.030;11.598;2022-11-15T14:17:44;5.77;;;2.23;;
16512;SDS011;8369;48.030;11.598;2022-11-15T14:20:27;9.23;;;2.27;;
16512;SDS011;8369;48.030;11.598;2022-11-15T14:22:56;2.87;;;2.47;;
16512;SDS011;8369;48.030;11.598;2022-11-15T14:25:31;4.10;;;2.53;;
16512;SDS011;8369;48.030;11.598;2022-11-15T14:28:08;5.77;;;2.63;;
16512;SDS011;8369;48.030;11.598;2022-11-15T14:30:41;5.30;;;2.77;;
16512;SDS011;8369;48.030;11.598;2022-11-15T14:33:17;5.73;;;3.00;;
16512;SDS011;8369;48.030;11.598;2022-11-15T14:35:55;3.93;;;3.00;;
16512;SDS011;8369;48.030;11.598;2022-11-15T14:38:23;7.73;;;2.90;;
16512;SDS011;8369;48.030;11.598;2022-11-15T14:40:50;5.73;;;2.97;;
16512;SDS011;8369;48.030;11.598;2022-11-15T14:43:16;5.80;;;2.87;;
16512;SDS011;8369;48.030;11.598;2022-11-15T14:45:42;3.50;;;2.57;;
16512;SDS011;8369;48.030;11.598;2022-11-15T14:48:08;6.67;;;2.77;;
16512;SDS011;8369;48.030;11.598;2022-11-15T14:50:34;4.47;;;2.43;;
16512;SDS011;8369;48.030;11.598;2022-11-15T14:53:01;4.93;;;2.43;;
16512;SDS011;8369;48.030;11.598;2022-11-15T14:55:28;3.20;;;2.70;;
16512;SDS011;8369;48.030;11.598;2022-11-15T14:58:04;4.57;;;2.33;;
16512;SDS011;8369;48.030;11.598;2022-11-15T15:00:33;5.40;;;2.50;;
16512;SDS011;8369;48.030;11.598;2022-11-15T15:03:05;3.87;;;2.30;;
16512;SDS011;8369;48.030;11.598;2022-11-15T15:08:03;4.83;;;2.97;;
16512;SDS011;8369;48.030;11.598;2022-11-15T15:10:31;2.73;;;2.27;;
16512;SDS011;8369;48.030;11.598;2022-11-15T15:12:59;4.27;;;2.30;;
16512;SDS011;8369;48.030;11.598;2022-11-15T15:15:26;2.77;;;2.30;;
16512;SDS011;8369;48.030;11.598;2022-11-15T15:17:57;3.60;;;2.70;;
16512;SDS011;8369;48.030;11.598;2022-11-15T15:20:23;3.73;;;2.60;;
16512;SDS011;8369;48.030;11.598;2022-11-15T15:22:49;2.83;;;2.53;;
16512;SDS011;8369;48.030;11.598;2022-11-15T15:27:48;6.07;;;3.50;;
16512;SDS011;8369;48.030;11.598;2022-11-15T15:30:16;7.30;;;3.73;;
16512;SDS011;8369;48.030;11.598;2022-11-15T15:32:42;6.50;;;4.03;;
16512;SDS011;8369;48.030;11.598;2022-11-15T15:35:10;5.73;;;3.47;;
16512;SDS011;8369;48.030;11.598;2022-11-15T15:37:37;7.77;;;3.00;;
16512;SDS011;8369;48.030;11.598;2022-11-15T15:40:08;11.13;;;3.30;;
16512;SDS011;8369;48.030;11.598;2022-11-15T15:42:41;8.43;;;3.20;;
16512;SDS011;8369;48.030;11.598;2022-11-15T15:45:08;11.30;;;3.30;;
16512;SDS011;8369;48.030;11.598;2022-11-15T15:47:35;12.27;;;3.87;;
16512;SDS011;8369;48.030;11.598;2022-11-15T15:50:01;11.13;;;5.57;;
16512;SDS011;8369;48.030;11.598;2022-11-15T15:52:27;10.40;;;6.03;;
16512;SDS011;8369;48.030;11.598;2022-11-15T15:54:53;10.23;;;4.63;;
16512;SDS011;8369;48.030;11.598;2022-11-15T15:57:19;14.33;;;7.10;;
16512;SDS011;8369;48.030;11.598;2022-11-15T15:59:45;13.53;;;7.60;;
16512;SDS011;8369;48.030;11.598;2022-11-15T16:02:14;12.67;;;7.30;;
16512;SDS011;8369;48.030;11.598;2022-11-15T16:04:40;9.73;;;5.80;;
16512;SDS011;8369;48.030;11.598;2022-11-15T16:07:07;6.43;;;4.60;;
16512;SDS011;8369;48.030;11.598;2022-11-15T16:09:41;8.30;;;4.40;;
16512;SDS011;8369;48.030;11.598;2022-11-15T16:12:32;9.97;;;4.63;;
16512;SDS011;8369;48.030;11.598;2022-11-15T16:15:00;12.20;;;5.07;;
16512;SDS011;8369;48.030;11.598;2022-11-15T16:17:28;7.07;;;4.33;;
16512;SDS011;8369;48.030;11.598;2022-11-15T16:19:57;6.30;;;3.93;;
16512;SDS011;8369;48.030;11.598;2022-11-15T16:22:23;5.97;;;3.77;;
16512;SDS011;8369;48.030;11.598;2022-11-15T16:24:49;7.47;;;3.90;;
16512;SDS011;8369;48.030;11.598;2022-11-15T16:27:15;6.33;;;3.70;;
16512;SDS011;8369;48.030;11.598;2022-11-15T16:29:43;7.97;;;4.00;;
16512;SDS011;8369;48.030;11.598;2022-11-15T16:32:10;6.30;;;4.03;;
16512;SDS011;8369;48.030;11.598;2022-11-15T16:34:36;7.23;;;3.87;;
16512;SDS011;8369;48.030;11.598;2022-11-15T16:37:02;5.50;;;3.87;;
16512;SDS011;8369;48.030;11.598;2022-11-15T16:39:29;10.53;;;4.10;;
16512;SDS011;8369;48.030;11.598;2022-11-15T16:41:58;12.27;;;4.40;;
16512;SDS011;8369;48.030;11.598;2022-11-15T16:44:25;7.47;;;4.67;;
16512;SDS011;8369;48.030;11.598;2022-11-15T16:46:51;10.03;;;4.90;;
16512;SDS011;8369;48.030;11.598;2022-11-15T16:49:18;6.77;;;4.40;;
16512;SDS011;8369;48.030;11.598;2022-11-15T16:51:45;10.47;;;4.53;;
16512;SDS011;8369;48.030;11.598;2022-11-15T16:54:12;10.63;;;5.60;;
16512;SDS011;8369;48.030;11.598;2022-11-15T16:56:38;9.73;;;5.70;;
16512;SDS011;8369;48.030;11.598;2022-11-15T16:59:04;15.37;;;6.93;;
16512;SDS011;8369;48.030;11.598;2022-11-15T17:01:32;12.67;;;6.50;;
16512;SDS011;8369;48.030;11.598;2022-11-15T17:04:14;13.40;;;6.23;;
16512;SDS011;8369;48.030;11.598;2022-11-15T17:06:43;11.73;;;6.60;;
16512;SDS011;8369;48.030;11.598;2022-11-15T17:09:18;10.03;;;6.90;;
16512;SDS011;8369;48.030;11.598;2022-11-15T17:11:45;9.47;;;6.43;;
16512;SDS011;8369;48.030;11.598;2022-11-15T17:14:11;12.13;;;5.70;;
16512;SDS011;8369;48.030;11.598;2022-11-15T17:16:38;6.43;;;5.07;;
16512;SDS011;8369;48.030;11.598;2022-11-15T17:19:10;6.47;;;4.60;;